Time;durP1;ratioP1;P1;durP2;ratioP2;P2;SDS_P1;SDS_P2;PMS_P1;PMS_P2;Temp;Humidity;BMP_temperature;BMP_pressure;BME280_temperature;BME280_humidity;BME280_pressure;Samples;Min_cycle;Max_cycle;Signal;HPM_P1;HPM_P2
2022/05/15 00:01:03;;;;;;;14.88;8.10;;;;;;;;;;4967856;28;20039;-61
2022/05/15 00:03:29;;;;;;;17.33;8.35;;;;;;;;;;4968424;28;20034;-62
2022/05/15 00:06:01;;;;;;;14.63;7.70;;;;;;;;;;4973118;28;20027;-62
2022/05/15 00:08:29;;;;;;;15.63;7.53;;;;;;;;;;4963003;28;20039;-62
2022/05/15 00:10:56;;;;;;;13.52;7.70;;;;;;;;;;4970102;28;20049;-62
2022/05/15 00:13:23;;;;;;;14.38;7.63;;;;;;;;;;4976562;28;20034;-62
2022/05/15 00:15:49;;;;;;;15.45;7.25;;;;;;;;;;4969402;28;20050;-62
2022/05/15 00:18:16;;;;;;;15.55;7.82;;;;;;;;;;4962807;28;20494;-62
2022/05/15 00:20:42;;;;;;;16.92;7.63;;;;;;;;;;4963825;28;20133;-62
2022/05/15 00:23:10;;;;;;;13.82;8.23;;;;;;;;;;4974061;28;20507;-62
2022/05/15 00:25:36;;;;;;;13.05;7.70;;;;;;;;;;4967713;28;20041;-62
2022/05/15 00:28:03;;;;;;;14.75;8.00;;;;;;;;;;4968583;28;20031;-62
2022/05/15 00:30:29;;;;;;;13.75;7.28;;;;;;;;;;4966463;28;20082;-62
2022/05/15 00:32:55;;;;;;;13.70;7.20;;;;;;;;;;4971094;28;21090;-62
2022/05/15 00:35:21;;;;;;;16.90;8.15;;;;;;;;;;4968683;28;20433;-62
2022/05/15 00:37:47;;;;;;;12.48;6.95;;;;;;;;;;4964086;28;20034;-62
2022/05/15 00:40:15;;;;;;;16.92;8.10;;;;;;;;;;4972801;28;20058;-62
2022/05/15 00:42:40;;;;;;;16.33;7.65;;;;;;;;;;4959571;28;20469;-61
2022/05/15 00:45:07;;;;;;;18.30;8.23;;;;;;;;;;4968243;28;20030;-62
2022/05/15 00:47:34;;;;;;;17.15;7.20;;;;;;;;;;4974318;28;20030;-61
2022/05/15 00:50:04;;;;;;;17.35;7.30;;;;;;;;;;4968992;28;20038;-62
2022/05/15 00:52:34;;;;;;;13.68;7.43;;;;;;;;;;4963732;28;20026;-62
2022/05/15 00:55:38;;;;;;;19.30;7.35;;;;;;;;;;4957247;28;20118;-62
2022/05/15 00:58:10;;;;;;;17.17;7.50;;;;;;;;;;4930469;29;20115;-60
2022/05/15 01:00:40;;;;;;;13.20;7.47;;;;;;;;;;4925534;29;20055;-62
2022/05/15 01:03:12;;;;;;;10.55;6.40;;;;;;;;;;4934336;29;20146;-62
2022/05/15 01:05:45;;;;;;;15.15;7.55;;;;;;;;;;4930342;29;20067;-61
2022/05/15 01:08:11;;;;;;;13.35;7.22;;;;;;;;;;4930672;29;20031;-61
2022/05/15 01:10:40;;;;;;;18.33;6.93;;;;;;;;;;4933300;29;20139;-62
2022/05/15 01:13:06;;;;;;;12.07;6.65;;;;;;;;;;4929015;29;20065;-62
2022/05/15 01:15:33;;;;;;;12.27;6.85;;;;;;;;;;4934042;29;20493;-62
2022/05/15 01:17:59;;;;;;;7.57;5.70;;;;;;;;;;4932678;29;20118;-62
2022/05/15 01:20:27;;;;;;;14.98;6.65;;;;;;;;;;4928677;29;20114;-61
2022/05/15 01:22:52;;;;;;;8.32;5.90;;;;;;;;;;4924998;29;20035;-62
2022/05/15 01:25:22;;;;;;;15.10;6.38;;;;;;;;;;4930296;29;20039;-61
2022/05/15 01:28:02;;;;;;;9.68;5.70;;;;;;;;;;4922316;29;20122;-62
2022/05/15 01:30:28;;;;;;;9.90;5.47;;;;;;;;;;4927860;29;20138;-62
2022/05/15 01:32:53;;;;;;;13.23;5.43;;;;;;;;;;4958302;28;20403;-62
2022/05/15 01:35:19;;;;;;;12.77;5.30;;;;;;;;;;4968829;28;20555;-62
2022/05/15 01:37:45;;;;;;;12.57;5.20;;;;;;;;;;4963789;28;20030;-61
2022/05/15 01:40:12;;;;;;;10.23;5.05;;;;;;;;;;4961677;28;20030;-61
2022/05/15 01:42:38;;;;;;;10.70;5.65;;;;;;;;;;4966917;28;20034;-61
2022/05/15 01:45:05;;;;;;;11.63;6.03;;;;;;;;;;4969406;28;20062;-61
2022/05/15 01:47:31;;;;;;;9.98;5.25;;;;;;;;;;4965361;28;20046;-61
2022/05/15 01:49:57;;;;;;;15.52;6.00;;;;;;;;;;4958093;28;20038;-62
2022/05/15 01:52:22;;;;;;;11.82;5.80;;;;;;;;;;4960349;28;20038;-61
2022/05/15 01:54:48;;;;;;;12.50;5.57;;;;;;;;;;4958911;28;20034;-61
2022/05/15 01:57:14;;;;;;;13.15;5.70;;;;;;;;;;4958642;28;20090;-62
2022/05/15 01:59:40;;;;;;;14.57;5.93;;;;;;;;;;4955228;28;20054;-61
2022/05/15 02:02:07;;;;;;;13.13;5.65;;;;;;;;;;4964046;28;20039;-60
2022/05/15 02:04:33;;;;;;;12.35;5.25;;;;;;;;;;4960474;28;20467;-61
2022/05/15 02:06:59;;;;;;;14.05;5.72;;;;;;;;;;4963116;28;20027;-62
2022/05/15 02:09:25;;;;;;;9.30;5.00;;;;;;;;;;4968912;28;20027;-60
2022/05/15 02:11:51;;;;;;;9.65;5.25;;;;;;;;;;4965411;28;20034;-61
2022/05/15 02:14:17;;;;;;;8.55;5.70;;;;;;;;;;4961974;28;20042;-61
2022/05/15 02:16:42;;;;;;;12.00;5.65;;;;;;;;;;4967005;28;20132;-61
2022/05/15 02:19:08;;;;;;;10.23;5.43;;;;;;;;;;4954991;28;20034;-61
2022/05/15 02:21:34;;;;;;;11.25;5.40;;;;;;;;;;4956939;28;20231;-61
2022/05/15 02:24:00;;;;;;;13.00;5.75;;;;;;;;;;4968727;28;20030;-61
2022/05/15 02:26:26;;;;;;;13.25;5.82;;;;;;;;;;4966964;28;20089;-61
2022/05/15 02:28:52;;;;;;;8.02;5.13;;;;;;;;;;4971996;28;20046;-61
2022/05/15 02:31:18;;;;;;;12.13;6.00;;;;;;;;;;4964184;28;20113;-61
2022/05/15 02:33:44;;;;;;;10.48;5.55;;;;;;;;;;4959166;28;20557;-61
2022/05/15 02:36:09;;;;;;;13.15;5.10;;;;;;;;;;4964121;28;20063;-61
2022/05/15 02:38:36;;;;;;;13.95;5.78;;;;;;;;;;4969030;28;20027;-61
2022/05/15 02:41:02;;;;;;;10.40;5.45;;;;;;;;;;4963198;28;20038;-61
2022/05/15 02:43:29;;;;;;;8.68;5.40;;;;;;;;;;4960913;28;20035;-61
2022/05/15 02:45:55;;;;;;;18.55;5.95;;;;;;;;;;4965547;28;20026;-61
2022/05/15 02:51:07;;;;;;;11.85;5.93;;;;;;;;;;4963690;28;20054;-61
2022/05/15 02:53:44;;;;;;;13.82;6.68;;;;;;;;;;4969756;28;20066;-61
2022/05/15 02:56:32;;;;;;;13.35;5.88;;;;;;;;;;4963405;28;20050;-61
2022/05/15 02:58:58;;;;;;;13.85;6.43;;;;;;;;;;4965139;28;20145;-61
2022/05/15 03:01:24;;;;;;;12.25;6.07;;;;;;;;;;4966156;28;20519;-61
2022/05/15 03:03:50;;;;;;;10.82;6.80;;;;;;;;;;4955583;28;20579;-61
2022/05/15 03:06:18;;;;;;;12.60;6.13;;;;;;;;;;4974824;28;20170;-61
2022/05/15 03:08:47;;;;;;;13.68;6.57;;;;;;;;;;4964771;28;20034;-61
2022/05/15 03:11:13;;;;;;;11.48;5.55;;;;;;;;;;4965539;28;20045;-61
2022/05/15 03:13:41;;;;;;;13.35;5.90;;;;;;;;;;4967969;28;20031;-61
2022/05/15 03:16:08;;;;;;;9.23;5.88;;;;;;;;;;4966189;28;20972;-60
2022/05/15 03:18:43;;;;;;;9.55;5.80;;;;;;;;;;4962004;28;20483;-61
2022/05/15 03:21:10;;;;;;;14.90;6.13;;;;;;;;;;4975568;28;20406;-61
2022/05/15 03:23:36;;;;;;;16.05;6.28;;;;;;;;;;4963101;28;20077;-61
2022/05/15 03:26:03;;;;;;;12.93;6.05;;;;;;;;;;4969744;28;20034;-61
2022/05/15 03:28:29;;;;;;;29.13;6.05;;;;;;;;;;4964002;28;20029;-60
2022/05/15 03:30:55;;;;;;;11.88;6.70;;;;;;;;;;4961255;28;20035;-61
2022/05/15 03:33:20;;;;;;;14.68;6.93;;;;;;;;;;4967905;28;20161;-61
2022/05/15 03:35:46;;;;;;;11.43;5.65;;;;;;;;;;4962353;28;20114;-61
2022/05/15 03:38:12;;;;;;;16.17;5.78;;;;;;;;;;4963103;28;20407;-60
2022/05/15 03:40:38;;;;;;;10.32;5.70;;;;;;;;;;4966306;28;20449;-61
2022/05/15 03:43:04;;;;;;;11.93;6.13;;;;;;;;;;4960831;28;20055;-61
2022/05/15 03:45:30;;;;;;;9.82;5.85;;;;;;;;;;4956931;28;20031;-61
2022/05/15 03:47:56;;;;;;;11.90;5.95;;;;;;;;;;4964227;28;20321;-61
2022/05/15 03:50:27;;;;;;;10.02;5.10;;;;;;;;;;4966093;28;20656;-61
2022/05/15 03:52:53;;;;;;;13.13;6.32;;;;;;;;;;4966365;28;20034;-61
2022/05/15 03:55:18;;;;;;;12.43;6.10;;;;;;;;;;4966418;28;20034;-61
2022/05/15 03:57:44;;;;;;;12.57;6.20;;;;;;;;;;4957462;28;20033;-61
2022/05/15 04:00:14;;;;;;;11.20;5.70;;;;;;;;;;4964196;28;20035;-61
2022/05/15 04:02:40;;;;;;;8.27;5.50;;;;;;;;;;4962819;28;20033;-61
2022/05/15 04:05:08;;;;;;;13.25;6.05;;;;;;;;;;4956491;28;20027;-60
2022/05/15 04:07:45;;;;;;;12.43;6.13;;;;;;;;;;4966356;28;20463;-61
2022/05/15 04:10:12;;;;;;;10.95;5.93;;;;;;;;;;4960839;28;20042;-61
2022/05/15 04:12:37;;;;;;;8.85;6.00;;;;;;;;;;4969136;28;20109;-61
2022/05/15 04:15:04;;;;;;;11.63;5.80;;;;;;;;;;4965122;28;20479;-61
2022/05/15 04:17:29;;;;;;;10.88;5.45;;;;;;;;;;4972352;28;20711;-60
2022/05/15 04:19:55;;;;;;;12.68;5.85;;;;;;;;;;4977496;28;20495;-61
2022/05/15 04:22:21;;;;;;;12.30;6.10;;;;;;;;;;4967276;28;20030;-61
2022/05/15 04:24:47;;;;;;;20.75;6.47;;;;;;;;;;4967958;28;20031;-61
2022/05/15 04:27:13;;;;;;;12.43;5.70;;;;;;;;;;4966486;28;20027;-60
2022/05/15 04:29:38;;;;;;;12.77;5.72;;;;;;;;;;4972147;28;20372;-61
2022/05/15 04:32:05;;;;;;;18.15;5.68;;;;;;;;;;4977386;28;20034;-61
2022/05/15 04:34:30;;;;;;;11.27;6.40;;;;;;;;;;4973258;28;20081;-60
2022/05/15 04:36:56;;;;;;;8.27;5.60;;;;;;;;;;4979908;28;20424;-61
2022/05/15 04:39:22;;;;;;;13.98;5.80;;;;;;;;;;4972684;28;20052;-61
2022/05/15 04:41:48;;;;;;;12.95;5.95;;;;;;;;;;4969920;28;20043;-60
2022/05/15 04:44:14;;;;;;;12.50;6.63;;;;;;;;;;4964724;28;20089;-61
2022/05/15 04:46:40;;;;;;;15.35;6.15;;;;;;;;;;4969011;28;20027;-61
2022/05/15 04:49:06;;;;;;;14.20;6.03;;;;;;;;;;4974415;28;20034;-60
2022/05/15 04:51:32;;;;;;;16.17;6.95;;;;;;;;;;4966469;28;20391;-61
2022/05/15 04:53:59;;;;;;;12.02;6.35;;;;;;;;;;4970820;28;20030;-61
2022/05/15 04:56:25;;;;;;;18.60;6.80;;;;;;;;;;4971022;28;20759;-61
2022/05/15 04:58:51;;;;;;;11.73;5.72;;;;;;;;;;4966932;28;20026;-60
2022/05/15 05:01:18;;;;;;;9.73;5.88;;;;;;;;;;4967147;28;20651;-60
2022/05/15 05:03:44;;;;;;;11.48;5.78;;;;;;;;;;4964950;28;20428;-60
2022/05/15 05:06:11;;;;;;;14.68;6.00;;;;;;;;;;4965196;28;20089;-60
2022/05/15 05:08:37;;;;;;;15.70;6.10;;;;;;;;;;4973671;28;20026;-61
2022/05/15 05:11:03;;;;;;;15.68;6.00;;;;;;;;;;4967330;28;20041;-61
2022/05/15 05:13:29;;;;;;;18.55;6.00;;;;;;;;;;4967499;28;20041;-60
2022/05/15 05:15:54;;;;;;;14.00;6.60;;;;;;;;;;4962351;28;20050;-61
2022/05/15 05:18:20;;;;;;;13.65;6.55;;;;;;;;;;4971318;28;20072;-60
2022/05/15 05:20:46;;;;;;;11.55;6.00;;;;;;;;;;4963195;28;20094;-60
2022/05/15 05:23:12;;;;;;;15.10;6.38;;;;;;;;;;4968827;28;20046;-60
2022/05/15 05:25:39;;;;;;;15.10;6.32;;;;;;;;;;4968269;28;20023;-61
2022/05/15 05:28:05;;;;;;;14.68;6.25;;;;;;;;;;4969217;28;20022;-60
2022/05/15 05:30:32;;;;;;;17.00;6.30;;;;;;;;;;4967293;28;20068;-61
2022/05/15 05:32:57;;;;;;;10.20;5.63;;;;;;;;;;4973341;28;20455;-61
2022/05/15 05:35:25;;;;;;;10.13;5.85;;;;;;;;;;4968352;28;20046;-61
2022/05/15 05:37:52;;;;;;;13.95;6.05;;;;;;;;;;4967933;28;20117;-60
2022/05/15 05:40:19;;;;;;;10.68;6.53;;;;;;;;;;4967315;28;20061;-61
2022/05/15 05:42:44;;;;;;;15.02;6.40;;;;;;;;;;4958858;28;20027;-60
2022/05/15 05:45:11;;;;;;;13.75;6.30;;;;;;;;;;4961617;28;20114;-60
2022/05/15 05:47:37;;;;;;;18.45;6.07;;;;;;;;;;4957753;28;20055;-61
2022/05/15 05:50:05;;;;;;;12.32;6.07;;;;;;;;;;4967968;28;20038;-61
2022/05/15 05:52:31;;;;;;;12.45;6.20;;;;;;;;;;4958366;28;20043;-60
2022/05/15 05:54:56;;;;;;;10.90;6.10;;;;;;;;;;4965664;28;20031;-60
2022/05/15 05:57:22;;;;;;;11.40;5.95;;;;;;;;;;4973197;28;20185;-60
2022/05/15 05:59:48;;;;;;;11.77;6.28;;;;;;;;;;4970492;28;20027;-61
2022/05/15 06:02:13;;;;;;;10.43;6.30;;;;;;;;;;4961507;28;20031;-60
2022/05/15 06:04:40;;;;;;;10.40;5.97;;;;;;;;;;4969182;28;20033;-60
2022/05/15 06:07:08;;;;;;;14.13;6.30;;;;;;;;;;4967893;28;20034;-60
2022/05/15 06:09:37;;;;;;;11.65;6.10;;;;;;;;;;4960353;28;20031;-60
2022/05/15 06:12:04;;;;;;;14.13;6.47;;;;;;;;;;4957353;28;20031;-61
2022/05/15 06:14:30;;;;;;;14.95;6.47;;;;;;;;;;4964906;28;20043;-60
2022/05/15 06:16:56;;;;;;;15.07;6.13;;;;;;;;;;4958555;28;20515;-60
2022/05/15 06:19:21;;;;;;;11.52;5.82;;;;;;;;;;4962202;28;20052;-61
2022/05/15 06:21:47;;;;;;;8.93;5.88;;;;;;;;;;4967104;28;20038;-61
2022/05/15 06:24:13;;;;;;;14.25;6.03;;;;;;;;;;4966332;28;20121;-60
2022/05/15 06:26:39;;;;;;;15.70;6.43;;;;;;;;;;4967374;28;20031;-60
2022/05/15 06:29:04;;;;;;;14.50;7.13;;;;;;;;;;4963902;28;20567;-60
2022/05/15 06:31:30;;;;;;;14.80;6.80;;;;;;;;;;4958313;28;20396;-60
2022/05/15 06:33:56;;;;;;;15.02;6.55;;;;;;;;;;4960748;28;20026;-61
2022/05/15 06:36:21;;;;;;;10.80;6.40;;;;;;;;;;4965162;28;20030;-60
2022/05/15 06:38:47;;;;;;;11.95;6.63;;;;;;;;;;4962544;28;20492;-60
2022/05/15 06:41:13;;;;;;;12.20;6.65;;;;;;;;;;4957621;28;20479;-60
2022/05/15 06:43:39;;;;;;;12.40;5.95;;;;;;;;;;4965208;28;20031;-61
2022/05/15 06:46:04;;;;;;;10.00;6.15;;;;;;;;;;4963347;28;20035;-60
2022/05/15 06:48:30;;;;;;;10.88;5.90;;;;;;;;;;4964097;28;20034;-61
2022/05/15 06:50:56;;;;;;;12.98;5.93;;;;;;;;;;4973454;28;20037;-60
2022/05/15 06:53:22;;;;;;;11.82;6.60;;;;;;;;;;4958215;28;20405;-61
2022/05/15 06:58:34;;;;;;;12.85;6.07;;;;;;;;;;4963670;28;20038;-61
2022/05/15 07:01:00;;;;;;;10.80;5.95;;;;;;;;;;4972037;28;20034;-60
2022/05/15 07:03:27;;;;;;;9.35;6.03;;;;;;;;;;4962827;28;20037;-60
2022/05/15 07:05:52;;;;;;;14.80;7.03;;;;;;;;;;4959212;28;20062;-61
2022/05/15 07:08:18;;;;;;;10.50;6.18;;;;;;;;;;4961849;28;20038;-61
2022/05/15 07:10:45;;;;;;;11.15;5.82;;;;;;;;;;4963660;28;20157;-60
2022/05/15 07:13:11;;;;;;;12.05;6.03;;;;;;;;;;4967924;28;20026;-61
2022/05/15 07:15:37;;;;;;;10.55;5.93;;;;;;;;;;4958503;28;20027;-61
2022/05/15 07:18:05;;;;;;;10.13;5.43;;;;;;;;;;4967389;28;20026;-61
2022/05/15 07:20:31;;;;;;;13.35;5.88;;;;;;;;;;4961818;28;20106;-61
2022/05/15 07:22:56;;;;;;;12.30;6.20;;;;;;;;;;4955122;28;20075;-61
2022/05/15 07:25:22;;;;;;;10.88;5.43;;;;;;;;;;4968410;28;20597;-61
2022/05/15 07:27:48;;;;;;;13.02;6.65;;;;;;;;;;4958196;28;20503;-61
2022/05/15 07:30:14;;;;;;;9.05;5.25;;;;;;;;;;4965766;28;20034;-61
2022/05/15 07:32:40;;;;;;;16.98;6.05;;;;;;;;;;4970987;28;20035;-61
2022/05/15 07:35:06;;;;;;;10.60;5.32;;;;;;;;;;4969958;28;20530;-60
2022/05/15 07:37:32;;;;;;;10.25;5.72;;;;;;;;;;4970004;28;20098;-61
2022/05/15 07:39:57;;;;;;;10.90;5.88;;;;;;;;;;4971650;28;20114;-61
2022/05/15 07:42:23;;;;;;;16.55;5.88;;;;;;;;;;4965258;28;20117;-60
2022/05/15 07:44:49;;;;;;;15.30;6.18;;;;;;;;;;4964665;28;20134;-60
2022/05/15 07:47:14;;;;;;;13.40;6.07;;;;;;;;;;4975017;28;20031;-61
2022/05/15 07:49:40;;;;;;;12.15;5.80;;;;;;;;;;4972036;28;20030;-61
2022/05/15 07:52:07;;;;;;;12.75;6.15;;;;;;;;;;4971522;28;20047;-60
2022/05/15 07:54:33;;;;;;;18.00;6.60;;;;;;;;;;4973095;28;20114;-61
2022/05/15 07:57:00;;;;;;;13.07;5.47;;;;;;;;;;4957188;28;20028;-61
2022/05/15 07:59:27;;;;;;;11.65;6.00;;;;;;;;;;4975903;28;20037;-61
2022/05/15 08:01:55;;;;;;;13.68;6.25;;;;;;;;;;4974053;28;20564;-61
2022/05/15 08:04:22;;;;;;;13.65;5.88;;;;;;;;;;4959376;28;20118;-61
2022/05/15 08:09:32;;;;;;;11.38;5.78;;;;;;;;;;4968846;28;20038;-61
2022/05/15 08:11:58;;;;;;;19.08;6.22;;;;;;;;;;4970387;28;20023;-61
2022/05/15 08:14:24;;;;;;;17.65;6.03;;;;;;;;;;4969599;28;20029;-61
2022/05/15 08:16:49;;;;;;;15.68;6.32;;;;;;;;;;4974593;28;20047;-60
2022/05/15 08:25:01;;;;;;;10.13;5.57;;;;;;;;;;4974959;28;20049;-61
2022/05/15 08:27:27;;;;;;;12.18;6.30;;;;;;;;;;4977198;28;20061;-60
2022/05/15 08:29:53;;;;;;;17.23;6.35;;;;;;;;;;4984178;28;20069;-61
2022/05/15 08:32:19;;;;;;;19.10;6.22;;;;;;;;;;4982889;28;20061;-61
2022/05/15 08:34:45;;;;;;;17.90;6.07;;;;;;;;;;4976855;28;20038;-59
2022/05/15 08:37:11;;;;;;;18.83;5.85;;;;;;;;;;4980932;28;20099;-61
2022/05/15 08:39:37;;;;;;;11.10;5.72;;;;;;;;;;4981738;28;20026;-61
2022/05/15 08:42:16;;;;;;;14.32;5.40;;;;;;;;;;4984176;28;20039;-61
2022/05/15 08:44:44;;;;;;;9.48;5.47;;;;;;;;;;4976965;28;20035;-61
2022/05/15 08:47:20;;;;;;;16.20;6.30;;;;;;;;;;4958440;28;20176;-61
2022/05/15 08:50:04;;;;;;;16.30;6.38;;;;;;;;;;4975145;28;20129;-61
2022/05/15 08:52:38;;;;;;;12.95;5.80;;;;;;;;;;4975098;28;21692;-61
2022/05/15 08:55:11;;;;;;;16.70;6.18;;;;;;;;;;4976889;28;20109;-61
2022/05/15 08:57:41;;;;;;;18.77;6.88;;;;;;;;;;4962002;28;20036;-61
2022/05/15 09:00:11;;;;;;;19.42;6.20;;;;;;;;;;4965616;28;20042;-61
2022/05/15 09:02:43;;;;;;;14.77;6.65;;;;;;;;;;4964874;28;22101;-61
2022/05/15 09:05:11;;;;;;;13.73;5.78;;;;;;;;;;4962793;28;20045;-61
2022/05/15 09:07:46;;;;;;;12.23;5.30;;;;;;;;;;4964423;28;20031;-61
2022/05/15 09:10:37;;;;;;;12.05;4.90;;;;;;;;;;4964997;28;20069;-62
2022/05/15 09:13:12;;;;;;;9.40;4.60;;;;;;;;;;4964634;28;20126;-61
2022/05/15 09:15:51;;;;;;;12.20;5.60;;;;;;;;;;4969120;28;20488;-61
2022/05/15 09:18:18;;;;;;;8.35;4.78;;;;;;;;;;4970380;28;20121;-62
2022/05/15 09:20:54;;;;;;;14.27;5.00;;;;;;;;;;4963173;28;20121;-62
2022/05/15 09:23:20;;;;;;;14.23;5.10;;;;;;;;;;4962015;28;20035;-62
2022/05/15 09:25:58;;;;;;;9.77;5.25;;;;;;;;;;4968744;28;20559;-62
2022/05/15 09:28:26;;;;;;;18.73;5.80;;;;;;;;;;4964110;28;20035;-62
2022/05/15 09:30:57;;;;;;;11.65;5.10;;;;;;;;;;4963956;28;20027;-62
2022/05/15 09:33:32;;;;;;;16.85;5.15;;;;;;;;;;4969047;28;20113;-61
2022/05/15 09:36:28;;;;;;;7.30;4.45;;;;;;;;;;4974090;28;20050;-62
2022/05/15 09:39:26;;;;;;;15.82;5.28;;;;;;;;;;4962835;28;20042;-62
2022/05/15 09:44:47;;;;;;;11.75;5.15;;;;;;;;;;4966747;28;20035;-61
2022/05/15 09:47:24;;;;;;;10.90;5.30;;;;;;;;;;4969201;28;20027;-62
2022/05/15 09:49:50;;;;;;;10.02;5.05;;;;;;;;;;4968414;28;20034;-62
2022/05/15 09:52:41;;;;;;;17.65;5.05;;;;;;;;;;4969127;28;20038;-62
2022/05/15 09:55:24;;;;;;;14.23;4.97;;;;;;;;;;4966256;28;20034;-61
2022/05/15 09:57:58;;;;;;;8.63;4.93;;;;;;;;;;4967501;28;20284;-62
2022/05/15 10:00:27;;;;;;;14.57;4.53;;;;;;;;;;4967571;28;20046;-62
2022/05/15 10:02:56;;;;;;;16.73;5.07;;;;;;;;;;4968057;28;20527;-61
2022/05/15 10:05:28;;;;;;;11.32;4.07;;;;;;;;;;4967612;28;20460;-62
2022/05/15 10:07:59;;;;;;;9.65;4.45;;;;;;;;;;4970950;28;20763;-62
2022/05/15 10:10:30;;;;;;;;;;;;;;;;;;4967192;28;20125;-62
2022/05/15 10:13:14;;;;;;;18.02;5.03;;;;;;;;;;4959862;28;19969;-62
2022/05/15 10:15:46;;;;;;;15.02;4.60;;;;;;;;;;4969129;28;20488;-62
2022/05/15 10:18:19;;;;;;;12.32;4.75;;;;;;;;;;4971844;28;20041;-63
2022/05/15 10:20:47;;;;;;;20.25;4.80;;;;;;;;;;4965259;28;20035;-62
2022/05/15 10:23:20;;;;;;;16.58;4.72;;;;;;;;;;4968844;28;20129;-62
2022/05/15 10:25:49;;;;;;;18.33;5.30;;;;;;;;;;4960707;28;20092;-62
2022/05/15 10:28:36;;;;;;;19.83;5.57;;;;;;;;;;4960354;28;20065;-62
2022/05/15 10:31:13;;;;;;;15.85;4.90;;;;;;;;;;4961663;28;20035;-62
2022/05/15 10:33:41;;;;;;;17.75;5.00;;;;;;;;;;4966662;28;20026;-61
2022/05/15 10:36:17;;;;;;;13.27;4.78;;;;;;;;;;4966288;28;20073;-60
2022/05/15 10:38:54;;;;;;;9.38;4.30;;;;;;;;;;4960926;28;20061;-62
2022/05/15 10:41:23;;;;;;;10.70;4.68;;;;;;;;;;4964194;28;20035;-62
2022/05/15 10:44:02;;;;;;;14.40;4.40;;;;;;;;;;4963715;28;20034;-62
2022/05/15 10:46:39;;;;;;;15.77;4.47;;;;;;;;;;4959009;28;20400;-62
2022/05/15 10:49:28;;;;;;;14.43;4.88;;;;;;;;;;4967556;28;20058;-62
2022/05/15 10:51:59;;;;;;;13.02;4.22;;;;;;;;;;4962979;28;20406;-62
2022/05/15 10:58:18;;;;;;;8.73;4.50;;;;;;;;;;4966995;28;20034;-62
2022/05/15 11:00:46;;;;;;;14.48;5.20;;;;;;;;;;4954614;28;20046;-62
2022/05/15 11:03:23;;;;;;;12.32;5.60;;;;;;;;;;4972103;28;20039;-61
2022/05/15 11:06:26;;;;;;;17.38;5.25;;;;;;;;;;4964776;28;20133;-62
2022/05/15 11:09:04;;;;;;;18.20;5.90;;;;;;;;;;4969203;28;20043;-61
2022/05/15 11:11:59;;;;;;;11.10;4.88;;;;;;;;;;4967986;28;20039;-62
2022/05/15 11:14:53;;;;;;;13.82;4.68;;;;;;;;;;4965264;28;20037;-62
2022/05/15 11:17:31;;;;;;;12.23;4.30;;;;;;;;;;4972041;28;20502;-62
2022/05/15 11:20:06;;;;;;;18.33;5.75;;;;;;;;;;4966752;28;20060;-62
2022/05/15 11:22:37;;;;;;;13.68;4.97;;;;;;;;;;4969473;28;20038;-61
2022/05/15 11:25:28;;;;;;;17.35;4.47;;;;;;;;;;4975168;28;20035;-62
2022/05/15 11:27:58;;;;;;;15.90;4.35;;;;;;;;;;4960820;28;20513;-62
2022/05/15 11:30:31;;;;;;;10.63;4.28;;;;;;;;;;4973021;28;20031;-62
2022/05/15 11:33:04;;;;;;;8.18;4.40;;;;;;;;;;4962026;28;20483;-62
2022/05/15 11:35:33;;;;;;;16.30;4.40;;;;;;;;;;4957048;28;20027;-62
2022/05/15 11:37:59;;;;;;;11.95;4.20;;;;;;;;;;4965153;28;20081;-62
2022/05/15 11:40:45;;;;;;;11.35;4.22;;;;;;;;;;4969390;28;20030;-62
2022/05/15 11:43:28;;;;;;;14.90;4.40;;;;;;;;;;4965650;28;20031;-62
2022/05/15 11:45:59;;;;;;;15.45;4.38;;;;;;;;;;4966963;28;20090;-62
2022/05/15 11:48:50;;;;;;;12.05;4.38;;;;;;;;;;4969758;28;20787;-62
2022/05/15 11:51:16;;;;;;;11.85;4.07;;;;;;;;;;4963571;28;20046;-62
2022/05/15 11:54:06;;;;;;;17.45;4.13;;;;;;;;;;4969419;28;20362;-62
2022/05/15 11:56:42;;;;;;;12.40;4.55;;;;;;;;;;4961746;28;20030;-62
2022/05/15 11:59:27;;;;;;;10.18;4.53;;;;;;;;;;4972007;28;20030;-62
2022/05/15 12:01:56;;;;;;;10.45;3.97;;;;;;;;;;4976016;28;20034;-62
2022/05/15 12:04:34;;;;;;;12.82;4.13;;;;;;;;;;4963162;28;20034;-62
2022/05/15 12:07:00;;;;;;;11.30;4.63;;;;;;;;;;4964549;28;20026;-62
2022/05/15 12:09:40;;;;;;;11.63;4.78;;;;;;;;;;4963018;28;20038;-62
2022/05/15 12:12:27;;;;;;;10.48;4.13;;;;;;;;;;4963920;28;20480;-61
2022/05/15 12:15:27;;;;;;;13.18;4.18;;;;;;;;;;4969321;28;20067;-62
2022/05/15 12:17:57;;;;;;;14.13;4.15;;;;;;;;;;4962686;28;20070;-62
2022/05/15 12:20:28;;;;;;;9.40;3.97;;;;;;;;;;4959130;28;20085;-62
2022/05/15 12:22:57;;;;;;;11.25;4.72;;;;;;;;;;4961940;28;20121;-62
2022/05/15 12:25:29;;;;;;;10.35;4.68;;;;;;;;;;4964565;28;20550;-62
2022/05/15 12:28:52;;;;;;;10.65;4.18;;;;;;;;;;4959443;28;20039;-62
2022/05/15 12:31:23;;;;;;;;;;;;;;;;;;4963139;28;20392;-62
2022/05/15 12:33:49;;;;;;;9.85;4.40;;;;;;;;;;4966266;28;20548;-62
2022/05/15 12:36:38;;;;;;;7.80;3.67;;;;;;;;;;4973917;28;20030;-62
2022/05/15 12:39:05;;;;;;;10.40;4.03;;;;;;;;;;4967696;28;20391;-62
2022/05/15 12:41:38;;;;;;;10.48;4.93;;;;;;;;;;4962417;28;20489;-62
2022/05/15 12:44:08;;;;;;;10.23;4.28;;;;;;;;;;4958530;28;20118;-63
2022/05/15 12:46:55;;;;;;;14.48;4.05;;;;;;;;;;4967496;28;20516;-62
2022/05/15 12:49:42;;;;;;;9.38;3.60;;;;;;;;;;4963549;28;20444;-62
2022/05/15 12:52:26;;;;;;;10.90;3.33;;;;;;;;;;4974663;28;20022;-61
2022/05/15 12:55:02;;;;;;;10.48;4.30;;;;;;;;;;4960928;28;20031;-62
2022/05/15 12:57:29;;;;;;;14.75;3.83;;;;;;;;;;4963869;28;20038;-62
2022/05/15 12:59:55;;;;;;;9.95;3.70;;;;;;;;;;4974220;28;20038;-63
2022/05/15 13:02:37;;;;;;;10.77;3.15;;;;;;;;;;4964991;28;20027;-62
2022/05/15 13:05:05;;;;;;;;;;;;;;;;;;4965608;28;20117;-62
2022/05/15 13:07:37;;;;;;;9.23;3.60;;;;;;;;;;4964870;28;19972;-62
2022/05/15 13:10:10;;;;;;;11.93;3.55;;;;;;;;;;4966262;28;20102;-62
2022/05/15 13:12:49;;;;;;;10.43;3.70;;;;;;;;;;4972069;28;20040;-63
2022/05/15 13:15:18;;;;;;;12.20;3.80;;;;;;;;;;4969504;28;20377;-62
2022/05/15 13:17:44;;;;;;;10.32;3.72;;;;;;;;;;4960502;28;20050;-62
2022/05/15 13:20:15;;;;;;;9.93;3.40;;;;;;;;;;4963374;28;20039;-62
2022/05/15 13:22:41;;;;;;;11.25;4.18;;;;;;;;;;4959268;28;20038;-62
2022/05/15 13:25:15;;;;;;;9.40;4.00;;;;;;;;;;4962421;28;20119;-63
2022/05/15 13:27:43;;;;;;;8.43;3.42;;;;;;;;;;4965333;28;20088;-62
2022/05/15 13:30:13;;;;;;;8.73;3.72;;;;;;;;;;4970908;28;20034;-62
2022/05/15 13:32:41;;;;;;;8.10;3.80;;;;;;;;;;4962756;28;20023;-62
2022/05/15 13:35:09;;;;;;;11.40;4.47;;;;;;;;;;4964676;28;20031;-63
2022/05/15 13:37:38;;;;;;;12.45;3.75;;;;;;;;;;4962342;28;20110;-63
2022/05/15 13:45:51;;;;;;;11.30;4.28;;;;;;;;;;4955284;28;20200;-62
2022/05/15 13:48:18;;;;;;;13.27;3.60;;;;;;;;;;4968453;28;20088;-63
2022/05/15 13:50:51;;;;;;;12.20;4.15;;;;;;;;;;4963666;28;20070;-62
2022/05/15 13:53:20;;;;;;;9.00;3.83;;;;;;;;;;4954964;28;20098;-62
2022/05/15 13:56:05;;;;;;;10.82;3.85;;;;;;;;;;5076677;27;20127;-62
2022/05/15 13:58:41;;;;;;;11.15;4.30;;;;;;;;;;5083786;28;20040;-62
2022/05/15 14:01:14;;;;;;;17.00;4.25;;;;;;;;;;5078099;28;20037;-63
2022/05/15 14:03:43;;;;;;;10.13;3.83;;;;;;;;;;5079533;28;20113;-62
2022/05/15 14:06:19;;;;;;;10.55;3.90;;;;;;;;;;5077206;28;20468;-62
2022/05/15 14:09:04;;;;;;;12.40;3.72;;;;;;;;;;5082621;28;20043;-62
2022/05/15 14:11:52;;;;;;;22.38;3.95;;;;;;;;;;5073115;28;20385;-63
2022/05/15 14:14:41;;;;;;;11.80;4.20;;;;;;;;;;5081095;28;20072;-62
2022/05/15 14:17:07;;;;;;;9.82;4.35;;;;;;;;;;5085286;28;20020;-62
2022/05/15 14:19:33;;;;;;;9.13;4.20;;;;;;;;;;5078416;28;20077;-62
2022/05/15 14:22:03;;;;;;;16.67;4.60;;;;;;;;;;5071345;28;20020;-62
2022/05/15 14:24:30;;;;;;;6.63;3.97;;;;;;;;;;5080415;28;20024;-63
2022/05/15 14:26:57;;;;;;;11.00;4.30;;;;;;;;;;5087815;28;20516;-62
2022/05/15 14:29:23;;;;;;;14.48;4.38;;;;;;;;;;5079108;28;20040;-62
2022/05/15 14:31:49;;;;;;;10.02;4.22;;;;;;;;;;5059856;28;20461;-62
2022/05/15 14:34:15;;;;;;;8.38;3.72;;;;;;;;;;5083130;28;20032;-62
2022/05/15 14:36:41;;;;;;;8.07;4.07;;;;;;;;;;5074852;28;20497;-62
2022/05/15 14:39:08;;;;;;;9.25;4.00;;;;;;;;;;5072272;28;20028;-62
2022/05/15 14:41:35;;;;;;;17.02;4.63;;;;;;;;;;5079702;28;20038;-62
2022/05/15 14:44:02;;;;;;;13.48;3.92;;;;;;;;;;5081934;28;20032;-62
2022/05/15 14:46:30;;;;;;;14.93;4.25;;;;;;;;;;5075832;28;20067;-62
2022/05/15 14:48:57;;;;;;;14.88;4.50;;;;;;;;;;5079372;28;20610;-62
2022/05/15 14:51:25;;;;;;;7.65;3.38;;;;;;;;;;5076143;28;20012;-62
2022/05/15 14:53:54;;;;;;;9.35;3.67;;;;;;;;;;5075899;28;20689;-62
2022/05/15 14:56:21;;;;;;;9.63;3.85;;;;;;;;;;5076625;28;20028;-62
2022/05/15 14:59:00;;;;;;;13.80;4.60;;;;;;;;;;5073834;28;20389;-62
2022/05/15 15:01:28;;;;;;;11.80;4.07;;;;;;;;;;5070575;28;20127;-62
2022/05/15 15:03:54;;;;;;;10.55;3.42;;;;;;;;;;5078055;28;20024;-62
2022/05/15 15:06:20;;;;;;;9.43;3.97;;;;;;;;;;5069065;28;20083;-62
2022/05/15 15:08:46;;;;;;;8.35;4.15;;;;;;;;;;5054533;28;20029;-62
2022/05/15 15:11:24;;;;;;;8.00;3.80;;;;;;;;;;5060605;28;20035;-62
2022/05/15 15:13:58;;;;;;;9.85;4.00;;;;;;;;;;5058267;28;20094;-62
2022/05/15 15:16:27;;;;;;;10.88;4.07;;;;;;;;;;5062787;28;20419;-62